首页
METAR-TAF:

METAR-TAF

机场 :

腓特烈港机场

腓特烈港, 德国

纬度: 47-40N, 经度: 009-31E, 海拔: 416米

当前天气观测

该预报发布于33分钟前的15:20 UTC
风速5节,风向
温度 27°C
湿度 51%
气压 1014 hPa
能见度10公里或以上
1500米以下无云,无积雨云

METAR: EDNY 181520Z 18005KT CAVOK 27/16 Q1014

时间: 17:53 (15:53 UTC)

预报

该预报发布于4小时和53分钟前的11:00 UTC
预报有效从18日的 12点(UTC)到 19日的 12点(UTC)
风速5节,风向西转西南
能见度10公里或以上
1500米以下无云,无积雨云
成为
从 18日的 17点(UTC)到 18日的 19点(UTC)
风速3节,风向多变
成为
从 19日的 09点(UTC)到 19日的 11点(UTC)
风速5节,风向西南

TAF: EDNY 181100Z 1812/1912 25005KT CAVOK BECMG 1817/1819 VRB03KT BECMG 1909/1911 23005KT

超过4000个机场的气象观测和天气预报(METAR&TAF报告)。

可查询的气象台以黄色和红色小点在地图上表示。

将鼠标移到小点上方,可查看气象台名称。

然后点击查看天气观测和预报。

如需切换地图:点击带黑十字的绿色按钮放大地图;点击带横线的绿色按钮缩小地图;或者点击绿色箭头查看邻近地区的地图。


METAR-TAF: